createdAt,value
2019-05-23T00:02:21.471Z,99.90
2019-05-23T00:04:55.357Z,99.90
2019-05-23T00:07:25.289Z,99.90
2019-05-23T00:09:52.786Z,99.90
2019-05-23T00:12:39.783Z,99.90
2019-05-23T00:15:14.444Z,99.90
2019-05-23T00:17:42.125Z,99.80
2019-05-23T00:20:09.824Z,99.80
2019-05-23T00:22:37.556Z,99.80
2019-05-23T00:25:05.289Z,99.60
2019-05-23T00:27:33.457Z,99.50
2019-05-23T00:30:03.405Z,99.30
2019-05-23T00:32:35.476Z,99.20
2019-05-23T00:35:03.782Z,99.10
2019-05-23T00:37:32.356Z,99.20
2019-05-23T00:39:59.952Z,99.20
2019-05-23T00:42:29.057Z,99.10
2019-05-23T00:44:56.864Z,99.20
2019-05-23T00:47:25.280Z,99.10
2019-05-23T00:49:52.477Z,99.00
2019-05-23T00:52:20.780Z,98.90
2019-05-23T00:54:48.689Z,98.90
2019-05-23T00:57:16.574Z,98.80
2019-05-23T00:59:44.660Z,98.60
2019-05-23T01:02:11.957Z,98.70
2019-05-23T01:04:40.127Z,98.70
2019-05-23T01:07:09.081Z,98.70
2019-05-23T01:09:37.688Z,98.60
2019-05-23T01:12:05.313Z,98.60
2019-05-23T01:14:33.641Z,98.50
2019-05-23T01:17:01.228Z,98.50
2019-05-23T01:19:28.728Z,98.60
2019-05-23T01:21:58.565Z,98.70
2019-05-23T01:24:37.703Z,99.00
2019-05-23T01:27:06.506Z,98.80
2019-05-23T01:29:38.924Z,98.90
2019-05-23T01:32:13.975Z,99.00
2019-05-23T01:34:43.757Z,99.10
2019-05-23T01:37:11.355Z,99.10
2019-05-23T01:39:38.641Z,99.10
2019-05-23T01:42:06.523Z,99.10
2019-05-23T01:44:35.178Z,99.00
2019-05-23T01:47:03.177Z,99.00
2019-05-23T01:49:31.537Z,99.20
2019-05-23T01:52:00.681Z,99.20
2019-05-23T01:54:28.380Z,99.10
2019-05-23T01:56:56.182Z,99.30
2019-05-23T01:59:23.663Z,99.30
2019-05-23T02:01:52.573Z,99.30
2019-05-23T02:04:19.973Z,99.30
2019-05-23T02:06:47.598Z,99.30
2019-05-23T02:09:15.284Z,99.30
2019-05-23T02:11:42.675Z,99.30
2019-05-23T02:14:10.641Z,99.30
2019-05-23T02:16:38.951Z,99.30
2019-05-23T02:19:06.962Z,99.20
2019-05-23T02:21:34.562Z,99.10
2019-05-23T02:24:02.461Z,99.20
2019-05-23T02:26:30.356Z,99.20
2019-05-23T02:28:58.234Z,99.20
2019-05-23T02:31:25.429Z,99.30
2019-05-23T02:33:52.614Z,99.10
2019-05-23T02:36:19.934Z,99.20
2019-05-23T02:39:05.737Z,99.10
2019-05-23T02:41:45.330Z,99.20
2019-05-23T02:44:16.226Z,99.20
2019-05-23T02:47:02.448Z,99.20
2019-05-23T02:49:32.916Z,99.20
2019-05-23T02:52:14.857Z,99.30
2019-05-23T02:54:42.262Z,99.20
2019-05-23T02:57:10.253Z,99.30
2019-05-23T02:59:51.421Z,99.30
2019-05-23T03:02:44.971Z,99.40
2019-05-23T03:05:16.736Z,99.30
2019-05-23T03:07:44.532Z,99.40
2019-05-23T03:10:13.225Z,99.40
2019-05-23T03:12:42.921Z,99.50
2019-05-23T03:15:12.441Z,99.60
2019-05-23T03:17:44.687Z,99.90
2019-05-23T03:20:12.694Z,99.80
2019-05-23T03:23:07.838Z,99.80
2019-05-23T03:26:14.940Z,99.90
2019-05-23T03:28:42.293Z,99.90
2019-05-23T03:31:28.817Z,99.90
2019-05-23T03:33:45.262Z,99.90
2019-05-23T03:36:12.476Z,99.90
2019-05-23T03:38:40.380Z,99.90
2019-05-23T03:41:08.233Z,99.90
2019-05-23T03:43:36.004Z,99.90
2019-05-23T03:46:06.350Z,99.90
2019-05-23T03:48:34.126Z,99.90
2019-05-23T03:51:02.209Z,99.90
2019-05-23T03:53:31.212Z,99.90
2019-05-23T03:55:58.858Z,99.90
2019-05-23T03:58:29.148Z,99.90
2019-05-23T04:00:58.450Z,99.90
2019-05-23T04:03:26.456Z,99.90
2019-05-23T04:05:54.434Z,99.90
2019-05-23T04:08:22.842Z,99.90
2019-05-23T04:10:51.823Z,99.90
2019-05-23T04:13:19.854Z,99.90
2019-05-23T04:15:47.548Z,99.90
2019-05-23T04:18:14.746Z,99.90
2019-05-23T04:20:42.527Z,99.90
2019-05-23T04:23:10.809Z,99.90
2019-05-23T04:25:38.310Z,99.90
2019-05-23T04:28:05.792Z,99.90
2019-05-23T04:30:33.261Z,99.90
2019-05-23T04:33:01.080Z,99.90
2019-05-23T04:35:28.349Z,99.90
2019-05-23T04:37:56.481Z,99.90
2019-05-23T04:40:23.673Z,99.90
2019-05-23T04:42:51.000Z,99.90
2019-05-23T04:45:18.950Z,99.90
2019-05-23T04:47:46.174Z,99.90
2019-05-23T04:50:15.646Z,99.90
2019-05-23T04:52:43.046Z,99.90
2019-05-23T04:55:12.254Z,99.80
2019-05-23T04:57:40.087Z,99.80
2019-05-23T05:00:08.712Z,99.60
2019-05-23T05:02:36.026Z,99.60
2019-05-23T05:05:04.636Z,99.50
2019-05-23T05:07:31.827Z,99.50
2019-05-23T05:09:59.365Z,99.60
2019-05-23T05:12:26.833Z,99.60
2019-05-23T05:14:54.835Z,99.60
2019-05-23T05:17:22.653Z,99.40
2019-05-23T05:19:49.931Z,99.30
2019-05-23T05:22:17.804Z,99.40
2019-05-23T05:24:45.531Z,99.40
2019-05-23T05:27:14.405Z,99.40
2019-05-23T05:29:41.606Z,99.40
2019-05-23T05:32:09.276Z,99.20
2019-05-23T05:34:36.608Z,99.30
2019-05-23T05:37:03.899Z,99.10
2019-05-23T05:39:31.373Z,99.20
2019-05-23T05:41:59.220Z,99.10
2019-05-23T05:44:26.443Z,98.90
2019-05-23T05:46:53.883Z,99.00
2019-05-23T05:49:21.818Z,99.00
2019-05-23T05:51:49.477Z,98.80
2019-05-23T05:54:16.682Z,99.10
2019-05-23T05:56:44.052Z,99.00
2019-05-23T05:59:11.566Z,99.00
2019-05-23T06:01:39.632Z,98.80
2019-05-23T06:04:07.435Z,98.70
2019-05-23T06:06:42.713Z,98.60
2019-05-23T06:09:15.025Z,98.70
2019-05-23T06:11:42.414Z,98.50
2019-05-23T06:14:09.721Z,98.30
2019-05-23T06:16:37.420Z,98.20
2019-05-23T06:19:05.600Z,98.10
2019-05-23T06:21:34.054Z,98.10
2019-05-23T06:24:01.229Z,97.80
2019-05-23T06:26:28.592Z,98.00
2019-05-23T06:28:56.085Z,97.90
2019-05-23T06:31:24.085Z,97.90
2019-05-23T06:33:51.969Z,97.80
2019-05-23T06:36:19.180Z,97.80
2019-05-23T06:38:46.581Z,97.90
2019-05-23T06:41:14.177Z,97.80
2019-05-23T06:43:41.516Z,98.00
2019-05-23T06:46:08.708Z,98.00
2019-05-23T06:48:36.297Z,98.00
2019-05-23T06:51:03.785Z,98.00
2019-05-23T06:53:33.912Z,98.00
2019-05-23T06:56:01.110Z,98.00
2019-05-23T06:58:28.914Z,98.10
2019-05-23T07:00:56.336Z,98.10
2019-05-23T07:03:40.611Z,97.90
2019-05-23T07:05:54.106Z,98.00
2019-05-23T07:08:25.417Z,98.00
2019-05-23T07:10:52.700Z,98.20
2019-05-23T07:13:20.285Z,97.60
2019-05-23T07:15:47.684Z,97.60
2019-05-23T07:18:15.126Z,97.50
2019-05-23T07:20:42.326Z,97.50
2019-05-23T07:23:11.087Z,97.60
2019-05-23T07:25:38.310Z,97.60
2019-05-23T07:28:05.905Z,97.30
2019-05-23T07:30:33.584Z,97.40
2019-05-23T07:33:00.765Z,97.60
2019-05-23T07:35:27.984Z,97.30
2019-05-23T07:37:55.387Z,97.50
2019-05-23T07:40:25.337Z,97.80
2019-05-23T07:42:52.581Z,97.60
2019-05-23T07:45:24.608Z,97.50
2019-05-23T07:47:52.394Z,97.20
2019-05-23T07:50:20.681Z,97.00
2019-05-23T07:52:48.363Z,96.80
2019-05-23T07:55:23.360Z,96.90
2019-05-23T07:57:50.796Z,96.90
2019-05-23T08:00:23.204Z,97.00
2019-05-23T08:02:51.564Z,96.90
2019-05-23T08:05:19.840Z,97.00
2019-05-23T08:07:47.178Z,97.20
2019-05-23T08:10:30.888Z,97.30
2019-05-23T08:12:44.009Z,97.40
2019-05-23T08:15:11.812Z,97.30
2019-05-23T08:17:39.407Z,97.40
2019-05-23T08:20:08.116Z,97.60
2019-05-23T08:22:35.314Z,97.80
2019-05-23T08:25:03.281Z,97.70
2019-05-23T08:27:30.660Z,97.60
2019-05-23T08:29:57.840Z,97.90
2019-05-23T08:32:25.048Z,97.90
2019-05-23T08:34:52.619Z,98.10
2019-05-23T08:37:20.169Z,98.00
2019-05-23T08:39:48.065Z,97.80
2019-05-23T08:42:16.549Z,97.70
2019-05-23T08:44:44.570Z,97.50
2019-05-23T08:47:12.553Z,97.60
2019-05-23T08:49:39.781Z,97.30
2019-05-23T08:52:07.485Z,97.10
2019-05-23T08:54:35.019Z,97.40
2019-05-23T08:57:03.728Z,97.10
2019-05-23T08:59:31.238Z,97.10
2019-05-23T09:01:58.852Z,96.80
2019-05-23T09:04:26.399Z,96.60
2019-05-23T09:06:54.978Z,96.60
2019-05-23T09:09:29.569Z,96.50
2019-05-23T09:11:52.463Z,96.00
2019-05-23T09:14:19.965Z,96.20
2019-05-23T09:16:47.316Z,95.90
2019-05-23T09:19:14.762Z,96.00
2019-05-23T09:21:42.318Z,96.40
2019-05-23T09:24:10.843Z,96.10
2019-05-23T09:26:38.300Z,96.50
2019-05-23T09:29:06.985Z,96.00
2019-05-23T09:31:34.418Z,96.30
2019-05-23T09:34:01.593Z,95.80
2019-05-23T09:36:28.805Z,95.70
2019-05-23T09:38:56.025Z,95.50
2019-05-23T09:41:23.237Z,95.90
2019-05-23T09:43:50.433Z,95.50
2019-05-23T09:46:17.740Z,95.40
2019-05-23T09:48:45.404Z,95.20
2019-05-23T09:51:13.327Z,95.00
2019-05-23T09:53:46.346Z,95.20
2019-05-23T09:56:09.833Z,95.50
2019-05-23T09:58:37.144Z,95.30
2019-05-23T10:01:05.182Z,95.50
2019-05-23T10:03:32.393Z,94.90
2019-05-23T10:05:59.705Z,95.00
2019-05-23T10:08:26.929Z,94.40
2019-05-23T10:10:54.215Z,94.50
2019-05-23T10:13:37.850Z,95.20
2019-05-23T10:16:04.110Z,94.60
2019-05-23T10:18:31.508Z,94.60
2019-05-23T10:20:59.021Z,93.90
2019-05-23T10:23:26.336Z,94.60
2019-05-23T10:25:53.613Z,94.50
2019-05-23T10:28:20.912Z,94.50
2019-05-23T10:30:48.425Z,95.10
2019-05-23T10:33:15.958Z,94.60
2019-05-23T10:35:59.214Z,94.50
2019-05-23T10:38:12.652Z,94.40
2019-05-23T10:40:40.287Z,94.60
2019-05-23T10:43:08.920Z,94.60
2019-05-23T10:45:36.321Z,94.20
2019-05-23T10:48:04.921Z,94.10
2019-05-23T10:50:44.207Z,94.10
2019-05-23T10:53:02.239Z,94.60
2019-05-23T10:55:29.639Z,94.40
2019-05-23T10:57:56.831Z,94.40
2019-05-23T11:00:25.441Z,93.80
2019-05-23T11:02:53.512Z,93.70
2019-05-23T11:05:21.265Z,94.60
2019-05-23T11:07:49.200Z,94.20
2019-05-23T11:10:17.652Z,94.00
2019-05-23T11:12:45.389Z,94.10
2019-05-23T11:15:13.030Z,94.20
2019-05-23T11:17:40.462Z,94.30
2019-05-23T11:20:09.675Z,93.80
2019-05-23T11:22:36.957Z,93.20
2019-05-23T11:25:06.373Z,93.20
2019-05-23T11:27:33.780Z,94.10
2019-05-23T11:30:01.241Z,93.30
2019-05-23T11:32:29.061Z,93.90
2019-05-23T11:34:56.245Z,93.30
2019-05-23T11:37:23.610Z,92.70
2019-05-23T11:39:51.507Z,92.40
2019-05-23T11:42:19.268Z,93.20
2019-05-23T11:44:46.560Z,91.40
2019-05-23T11:47:15.070Z,91.20
2019-05-23T11:49:43.898Z,92.30
2019-05-23T11:52:11.984Z,91.50
2019-05-23T11:54:40.265Z,92.20
2019-05-23T11:57:08.466Z,92.60
2019-05-23T11:59:35.663Z,92.60
2019-05-23T12:02:18.963Z,91.80
2019-05-23T12:04:46.178Z,92.30
2019-05-23T12:07:17.704Z,91.70
2019-05-23T12:09:45.238Z,92.40
2019-05-23T12:12:12.493Z,91.70
2019-05-23T12:14:40.445Z,92.10
2019-05-23T12:17:07.861Z,92.60
2019-05-23T12:19:35.072Z,92.40
2019-05-23T12:22:02.526Z,92.30
2019-05-23T12:24:34.796Z,91.20
2019-05-23T12:26:59.270Z,89.60
2019-05-23T12:29:26.629Z,90.80
2019-05-23T12:31:54.040Z,90.70
2019-05-23T12:34:21.269Z,91.10
2019-05-23T12:36:48.492Z,90.60
2019-05-23T12:39:15.725Z,90.00
2019-05-23T12:41:42.959Z,90.20
2019-05-23T12:44:19.013Z,87.50
2019-05-23T12:46:47.224Z,85.80
2019-05-23T12:49:21.211Z,87.90
2019-05-23T12:51:49.024Z,89.40
2019-05-23T12:54:16.192Z,88.30
2019-05-23T12:56:48.618Z,88.80
2019-05-23T12:59:13.888Z,89.30
2019-05-23T13:01:43.415Z,87.20
2019-05-23T13:04:11.448Z,87.40
2019-05-23T13:06:39.168Z,87.00
2019-05-23T13:09:08.309Z,85.50
2019-05-23T13:11:35.603Z,85.50
2019-05-23T13:14:03.678Z,85.40
2019-05-23T13:16:31.106Z,85.60
2019-05-23T13:18:58.432Z,85.40
2019-05-23T13:21:25.737Z,86.60
2019-05-23T13:23:52.945Z,85.80
2019-05-23T13:26:20.566Z,86.40
2019-05-23T13:28:48.073Z,85.80
2019-05-23T13:31:15.272Z,83.80
2019-05-23T13:33:42.661Z,85.10
2019-05-23T13:36:10.049Z,84.30
2019-05-23T13:38:38.068Z,85.20
2019-05-23T13:41:05.380Z,86.60
2019-05-23T13:43:33.108Z,85.30
2019-05-23T13:46:00.322Z,84.40
2019-05-23T13:48:28.476Z,85.50
2019-05-23T13:50:56.144Z,84.00
2019-05-23T13:53:23.553Z,86.10
2019-05-23T13:55:52.090Z,85.90
2019-05-23T13:58:19.689Z,87.80
2019-05-23T14:00:48.137Z,85.70
2019-05-23T14:03:15.529Z,84.50
2019-05-23T14:05:42.737Z,82.90
2019-05-23T14:08:12.762Z,80.50
2019-05-23T14:10:39.580Z,78.70
2019-05-23T14:13:06.781Z,77.00
2019-05-23T14:15:39.036Z,79.10
2019-05-23T14:18:06.353Z,80.50
2019-05-23T14:20:33.972Z,79.10
2019-05-23T14:23:07.082Z,78.80
2019-05-23T14:25:35.101Z,80.50
2019-05-23T14:28:22.162Z,78.70
2019-05-23T14:31:00.680Z,80.50
2019-05-23T14:33:46.122Z,78.30
2019-05-23T14:36:19.177Z,77.80
2019-05-23T14:38:47.083Z,78.20
2019-05-23T14:41:14.369Z,79.00
2019-05-23T14:43:42.253Z,78.40
2019-05-23T14:46:14.069Z,79.60
2019-05-23T14:49:01.223Z,79.90
2019-05-23T14:51:47.017Z,78.70
2019-05-23T14:54:18.390Z,78.40
2019-05-23T14:56:47.057Z,80.10
2019-05-23T14:59:14.549Z,79.20
2019-05-23T15:01:42.754Z,80.00
2019-05-23T15:04:10.144Z,81.80
2019-05-23T15:06:37.630Z,80.20
2019-05-23T15:09:06.616Z,80.50
2019-05-23T15:11:34.217Z,81.70
2019-05-23T15:14:01.416Z,82.00
2019-05-23T15:16:28.709Z,81.80
2019-05-23T15:18:55.985Z,83.30
2019-05-23T15:21:23.828Z,82.80
2019-05-23T15:23:51.011Z,82.70
2019-05-23T15:26:22.929Z,84.10
2019-05-23T15:28:47.287Z,84.40
2019-05-23T15:31:14.569Z,83.80
2019-05-23T15:33:41.876Z,85.20
2019-05-23T15:36:09.169Z,85.40
2019-05-23T15:38:36.334Z,86.30
2019-05-23T15:41:03.925Z,86.50
2019-05-23T15:43:31.118Z,86.50
2019-05-23T15:45:58.437Z,86.20
2019-05-23T15:48:25.635Z,86.40
2019-05-23T15:50:52.901Z,86.60
2019-05-23T15:53:46.400Z,87.20
2019-05-23T15:56:31.740Z,86.90
2019-05-23T15:59:19.419Z,88.10
2019-05-23T16:02:12.154Z,88.80
2019-05-23T16:04:40.868Z,88.90
2019-05-23T16:07:09.372Z,89.00
2019-05-23T16:09:36.723Z,89.10
2019-05-23T16:12:04.031Z,89.60
2019-05-23T16:14:31.613Z,89.00
2019-05-23T16:16:58.915Z,89.80
2019-05-23T16:19:26.296Z,90.40
2019-05-23T16:21:53.537Z,90.60
2019-05-23T16:24:21.141Z,90.40
2019-05-23T16:26:48.726Z,90.20
2019-05-23T16:29:16.495Z,90.30
2019-05-23T16:31:44.324Z,89.40
2019-05-23T16:34:11.509Z,90.10
2019-05-23T16:36:38.888Z,89.50
2019-05-23T16:39:06.800Z,90.70
2019-05-23T16:41:33.984Z,89.40
2019-05-23T16:44:01.184Z,90.00
2019-05-23T16:46:28.503Z,90.00
2019-05-23T16:48:55.853Z,90.00
2019-05-23T16:51:23.153Z,90.30
2019-05-23T16:53:50.932Z,90.30
2019-05-23T16:56:49.458Z,90.20
2019-05-23T16:59:40.982Z,89.90
2019-05-23T17:02:39.677Z,89.80
2019-05-23T17:05:31.188Z,90.30
2019-05-23T17:08:33.107Z,90.70
2019-05-23T17:11:12.020Z,90.80
2019-05-23T17:13:46.357Z,90.80
2019-05-23T17:16:32.098Z,90.70
2019-05-23T17:19:10.125Z,90.90
2019-05-23T17:21:57.166Z,90.70
2019-05-23T17:24:47.351Z,90.70
2019-05-23T17:27:43.165Z,90.70
2019-05-23T17:30:28.908Z,91.00
2019-05-23T17:32:57.406Z,90.90
2019-05-23T17:35:24.824Z,91.10
2019-05-23T17:37:52.162Z,91.20
2019-05-23T17:40:24.927Z,91.10
2019-05-23T17:42:48.740Z,90.80
2019-05-23T17:45:16.477Z,91.10
2019-05-23T17:47:45.203Z,90.90
2019-05-23T17:50:12.392Z,91.20
2019-05-23T17:52:39.572Z,91.50
2019-05-23T17:55:07.089Z,91.90
2019-05-23T17:57:34.369Z,92.20
2019-05-23T18:00:03.217Z,92.30
2019-05-23T18:02:31.302Z,92.40
2019-05-23T18:04:58.472Z,92.50
2019-05-23T18:07:25.857Z,92.20
2019-05-23T18:09:53.276Z,92.20
2019-05-23T18:12:20.880Z,92.20
2019-05-23T18:14:48.084Z,92.10
2019-05-23T18:17:15.380Z,92.10
2019-05-23T18:19:42.566Z,92.10
2019-05-23T18:22:12.160Z,92.20
2019-05-23T18:24:39.456Z,92.30
2019-05-23T18:27:08.396Z,92.50
2019-05-23T18:29:35.668Z,92.70
2019-05-23T18:32:05.994Z,92.70
2019-05-23T18:34:33.489Z,92.70
2019-05-23T18:37:01.113Z,92.80
2019-05-23T18:39:29.002Z,93.10
2019-05-23T18:41:56.299Z,93.30
2019-05-23T18:44:23.504Z,93.50
2019-05-23T18:46:53.401Z,93.60
2019-05-23T18:49:20.987Z,93.60
2019-05-23T18:51:48.680Z,93.60
2019-05-23T18:54:15.982Z,93.70
2019-05-23T18:56:43.479Z,93.80
2019-05-23T18:59:10.857Z,93.60
2019-05-23T19:01:38.068Z,93.50
2019-05-23T19:04:05.439Z,93.50
2019-05-23T19:06:33.266Z,93.40
2019-05-23T19:09:00.556Z,93.50
2019-05-23T19:11:27.889Z,93.40
2019-05-23T19:13:55.184Z,93.10
2019-05-23T19:16:22.667Z,93.20
2019-05-23T19:18:50.149Z,93.20
2019-05-23T19:21:18.870Z,93.30
2019-05-23T19:23:46.405Z,93.70
2019-05-23T19:26:14.312Z,93.40
2019-05-23T19:28:42.522Z,93.50
2019-05-23T19:31:10.520Z,93.50
2019-05-23T19:33:38.952Z,93.60
2019-05-23T19:36:06.787Z,93.60
2019-05-23T19:38:34.320Z,93.60
2019-05-23T19:41:01.970Z,93.60
2019-05-23T19:43:29.678Z,93.70
2019-05-23T19:45:56.957Z,93.80
2019-05-23T19:48:24.946Z,93.90
2019-05-23T19:50:53.412Z,94.00
2019-05-23T19:53:20.920Z,94.10
2019-05-23T19:55:48.279Z,94.00
2019-05-23T19:58:16.259Z,93.80
2019-05-23T20:00:44.833Z,94.00
2019-05-23T20:03:12.681Z,94.00
2019-05-23T20:05:40.991Z,94.60
2019-05-23T20:08:08.604Z,94.90
2019-05-23T20:10:36.938Z,95.00
2019-05-23T20:13:04.908Z,95.10
2019-05-23T20:15:32.470Z,95.00
2019-05-23T20:17:59.996Z,95.00
2019-05-23T20:20:28.536Z,95.20
2019-05-23T20:22:55.995Z,95.10
2019-05-23T20:25:24.177Z,95.20
2019-05-23T20:27:51.554Z,95.30
2019-05-23T20:30:59.827Z,95.60
2019-05-23T20:33:28.018Z,95.60
2019-05-23T20:35:55.409Z,95.60
2019-05-23T20:38:24.056Z,95.80
2019-05-23T20:40:51.395Z,95.90
2019-05-23T20:43:18.751Z,95.90
2019-05-23T20:45:46.083Z,95.90
2019-05-23T20:48:13.397Z,95.80
2019-05-23T20:50:40.707Z,95.90
2019-05-23T20:53:07.979Z,95.80
2019-05-23T20:55:35.348Z,96.10
2019-05-23T20:58:02.865Z,95.90
2019-05-23T21:00:50.433Z,95.70
2019-05-23T21:03:20.007Z,95.80
2019-05-23T21:05:48.419Z,95.80
2019-05-23T21:08:15.719Z,95.80
2019-05-23T21:10:46.168Z,95.70
2019-05-23T21:13:13.432Z,95.80
2019-05-23T21:15:41.105Z,95.90
2019-05-23T21:18:08.907Z,95.70
2019-05-23T21:20:36.251Z,95.60
2019-05-23T21:23:03.542Z,95.70
2019-05-23T21:25:31.815Z,95.90
2019-05-23T21:27:59.215Z,95.80
2019-05-23T21:30:27.164Z,95.80
2019-05-23T21:32:54.555Z,95.70
2019-05-23T21:35:21.887Z,95.80
2019-05-23T21:37:49.157Z,95.70
2019-05-23T21:40:30.890Z,95.90
2019-05-23T21:42:58.359Z,95.70
2019-05-23T21:45:25.817Z,95.60
2019-05-23T21:47:53.073Z,95.50
2019-05-23T21:50:20.667Z,95.70
2019-05-23T21:52:47.965Z,95.40
2019-05-23T21:55:19.279Z,95.40
2019-05-23T21:57:46.485Z,95.50
2019-05-23T22:00:19.733Z,95.50
2019-05-23T22:02:47.010Z,95.60
2019-05-23T22:05:16.286Z,95.80
2019-05-23T22:07:43.693Z,95.60
2019-05-23T22:10:11.222Z,95.40
2019-05-23T22:12:39.321Z,95.50
2019-05-23T22:15:06.612Z,95.50
2019-05-23T22:17:33.924Z,95.50
2019-05-23T22:20:01.180Z,95.50
2019-05-23T22:22:28.376Z,95.50
2019-05-23T22:24:55.571Z,95.50
2019-05-23T22:27:22.982Z,95.30
2019-05-23T22:29:50.275Z,95.30
2019-05-23T22:32:19.569Z,95.20
2019-05-23T22:34:52.056Z,94.90
2019-05-23T22:37:26.693Z,94.80
2019-05-23T22:39:53.885Z,94.90
2019-05-23T22:42:21.835Z,95.00
2019-05-23T22:44:49.385Z,95.10
2019-05-23T22:47:16.769Z,95.20
2019-05-23T22:49:44.049Z,95.00
2019-05-23T22:52:11.233Z,95.00
2019-05-23T22:54:38.442Z,94.90
2019-05-23T22:57:05.617Z,94.90
2019-05-23T22:59:33.476Z,94.90
2019-05-23T23:02:00.764Z,94.90
2019-05-23T23:04:27.956Z,95.00
2019-05-23T23:06:56.055Z,95.10
2019-05-23T23:09:23.300Z,95.00
2019-05-23T23:11:50.554Z,95.00
2019-05-23T23:14:17.837Z,95.10
2019-05-23T23:16:45.520Z,95.00
2019-05-23T23:19:12.759Z,95.00
2019-05-23T23:21:40.409Z,95.10
2019-05-23T23:24:07.612Z,95.10
2019-05-23T23:26:34.797Z,95.20
2019-05-23T23:29:02.178Z,95.20
2019-05-23T23:31:29.475Z,95.20
2019-05-23T23:33:56.753Z,95.00
2019-05-23T23:36:23.925Z,95.10
2019-05-23T23:38:51.183Z,95.40
2019-05-23T23:41:18.431Z,95.30
2019-05-23T23:43:58.733Z,95.40
2019-05-23T23:46:32.725Z,95.40
2019-05-23T23:49:17.821Z,95.00
2019-05-23T23:52:03.252Z,94.90
2019-05-23T23:54:48.281Z,95.10
2019-05-23T23:57:34.077Z,95.00
